Time;durP1;ratioP1;P1;durP2;ratioP2;P2;SDS_P1;SDS_P2;PMS_P1;PMS_P2;Temp;Humidity;BMP_temperature;BMP_pressure;BME280_temperature;BME280_humidity;BME280_pressure;Samples;Min_cycle;Max_cycle;Signal;HPM_P1;HPM_P2
2022/04/02 00:00:56;;;;;;;;;;;2.60;1.00;;;;;;5088632;28;19987;-83
2022/04/02 00:03:22;;;;;;;;;;;2.60;99.90;;;;;;5091412;28;20428;-81
2022/04/02 00:05:47;;;;;;;;;;;2.60;1.00;;;;;;5090272;28;19919;-81
2022/04/02 00:08:13;;;;;;;;;;;2.50;1.00;;;;;;5091217;28;19919;-81
2022/04/02 00:10:39;;;;;;;;;;;2.50;99.90;;;;;;5092274;28;19938;-82
2022/04/02 00:13:04;;;;;;;;;;;2.50;1.00;;;;;;5089793;28;19916;-81
2022/04/02 00:15:29;;;;;;;;;;;2.60;1.00;;;;;;5088625;28;19931;-82
2022/04/02 00:17:55;;;;;;;;;;;2.60;1.00;;;;;;5092307;28;19915;-82
2022/04/02 00:20:21;;;;;;;;;;;2.60;1.00;;;;;;5094578;28;19934;-81
2022/04/02 00:25:30;;;;;;;;;;;2.60;99.90;;;;;;5094359;28;19920;-81
2022/04/02 00:27:56;;;;;;;;;;;2.60;99.90;;;;;;5093937;28;19916;-81
2022/04/02 00:30:21;;;;;;;;;;;2.60;99.90;;;;;;5093031;28;19916;-81
2022/04/02 00:32:47;;;;;;;;;;;2.60;99.90;;;;;;5093988;28;19939;-81
2022/04/02 00:35:13;;;;;;;;;;;2.60;99.90;;;;;;5093881;28;20001;-81
2022/04/02 00:37:38;;;;;;;;;;;2.60;99.90;;;;;;5093129;28;19919;-82
2022/04/02 00:40:04;;;;;;;;;;;2.60;99.90;;;;;;5095002;28;19915;-81
2022/04/02 00:42:30;;;;;;;;;;;2.60;99.90;;;;;;5091758;28;19942;-81
2022/04/02 00:44:55;;;;;;;;;;;2.60;99.90;;;;;;5095131;28;19957;-81
2022/04/02 00:47:22;;;;;;;;;;;2.60;99.90;;;;;;5127602;27;19955;-80
2022/04/02 00:49:47;;;;;;;;;;;2.60;99.90;;;;;;5098556;28;20002;-82
2022/04/02 00:52:13;;;;;;;;;;;2.60;99.90;;;;;;5097927;28;19955;-79
2022/04/02 00:54:39;;;;;;;;;;;2.60;99.90;;;;;;5097771;28;20011;-81
2022/04/02 00:57:04;;;;;;;;;;;2.60;99.90;;;;;;5100090;28;19924;-82
2022/04/02 00:59:30;;;;;;;;;;;2.60;99.90;;;;;;5095242;28;19959;-82
2022/04/02 01:01:56;;;;;;;;;;;2.60;99.90;;;;;;5094177;28;19919;-82
2022/04/02 01:04:22;;;;;;;;;;;2.60;99.90;;;;;;5095948;28;19920;-81
2022/04/02 01:06:48;;;;;;;;;;;2.60;99.90;;;;;;5097722;28;19916;-82
2022/04/02 01:09:13;;;;;;;;;;;2.60;99.90;;;;;;5096698;28;20006;-81
2022/04/02 01:11:40;;;;;;;;;;;2.60;99.90;;;;;;5096406;28;19986;-83
2022/04/02 01:14:07;;;;;;;;;;;2.60;99.90;;;;;;5096058;28;19912;-82
2022/04/02 01:16:33;;;;;;;;;;;2.60;99.90;;;;;;5092205;28;20407;-83
2022/04/02 01:18:59;;;;;;;;;;;2.60;99.90;;;;;;5097713;28;19943;-82
2022/04/02 01:21:26;;;;;;;;;;;2.60;99.90;;;;;;5096997;28;19912;-81
2022/04/02 01:23:51;;;;;;;;;;;2.60;99.90;;;;;;5096423;28;19912;-82
2022/04/02 01:26:18;;;;;;;;;;;2.60;99.90;;;;;;5096691;28;19969;-82
2022/04/02 01:28:43;;;;;;;;;;;2.60;99.90;;;;;;5095151;28;19920;-82
2022/04/02 01:31:09;;;;;;;;;;;2.60;99.90;;;;;;5097270;28;19969;-82
2022/04/02 01:33:35;;;;;;;;;;;2.60;99.90;;;;;;5090646;28;20376;-81
2022/04/02 01:36:01;;;;;;;;;;;2.60;99.90;;;;;;5093221;28;19920;-82
2022/04/02 01:38:27;;;;;;;;;;;2.60;99.90;;;;;;5091244;28;19919;-81
2022/04/02 01:40:53;;;;;;;;;;;2.60;99.90;;;;;;5092884;28;20113;-81
2022/04/02 01:43:19;;;;;;;;;;;2.60;99.90;;;;;;5090888;28;19939;-81
2022/04/02 01:45:44;;;;;;;;;;;2.60;99.90;;;;;;5092859;28;19918;-81
2022/04/02 01:48:10;;;;;;;;;;;2.50;99.90;;;;;;5090243;28;20290;-77
2022/04/02 01:50:36;;;;;;;;;;;2.60;99.90;;;;;;5089024;28;19916;-80
2022/04/02 01:53:01;;;;;;;;;;;2.60;99.90;;;;;;5092512;28;20032;-81
2022/04/02 01:55:27;;;;;;;;;;;2.60;99.90;;;;;;5093177;28;19912;-82
2022/04/02 01:57:52;;;;;;;;;;;2.60;99.90;;;;;;5094201;28;19920;-81
2022/04/02 02:00:20;;;;;;;;;;;2.60;99.90;;;;;;5100294;27;20050;-83
2022/04/02 02:02:45;;;;;;;;;;;2.60;99.90;;;;;;5092533;28;19913;-81
2022/04/02 02:05:11;;;;;;;;;;;2.50;99.90;;;;;;5092946;28;19919;-82
2022/04/02 02:07:36;;;;;;;;;;;2.50;99.90;;;;;;5097314;28;19916;-83
2022/04/02 02:10:02;;;;;;;;;;;2.50;99.90;;;;;;5093003;28;19951;-80
2022/04/02 02:12:28;;;;;;;;;;;2.50;99.90;;;;;;5092919;28;19916;-82
2022/04/02 02:14:53;;;;;;;;;;;2.50;99.90;;;;;;5093322;28;20353;-80
2022/04/02 02:17:19;;;;;;;;;;;2.50;99.90;;;;;;5096370;28;19912;-84
2022/04/02 02:19:45;;;;;;;;;;;2.50;99.90;;;;;;5095564;28;19970;-81
2022/04/02 02:22:11;;;;;;;;;;;2.50;99.90;;;;;;5095158;28;19915;-79
2022/04/02 02:24:37;;;;;;;;;;;2.50;99.90;;;;;;5094643;28;19989;-81
2022/04/02 02:27:02;;;;;;;;;;;2.50;99.90;;;;;;5094546;28;20010;-81
2022/04/02 02:29:28;;;;;;;;;;;2.50;99.90;;;;;;5125157;27;20007;-82
2022/04/02 02:31:53;;;;;;;;;;;2.50;99.90;;;;;;5095551;28;19938;-81
2022/04/02 02:37:03;;;;;;;;;;;2.50;99.90;;;;;;5092205;28;19968;-81
2022/04/02 02:39:29;;;;;;;;;;;2.40;99.90;;;;;;5093103;28;19912;-83
2022/04/02 02:41:54;;;;;;;;;;;2.40;99.90;;;;;;5094280;28;19912;-82
2022/04/02 02:44:19;;;;;;;;;;;2.40;99.90;;;;;;5092647;28;19916;-82
2022/04/02 02:46:45;;;;;;;;;;;2.40;99.90;;;;;;5092660;28;19912;-81
2022/04/02 02:49:10;;;;;;;;;;;2.40;99.90;;;;;;5093677;28;19912;-80
2022/04/02 02:51:36;;;;;;;;;;;2.30;99.90;;;;;;5092627;28;19931;-80
2022/04/02 02:54:01;;;;;;;;;;;2.40;99.90;;;;;;5094187;28;19918;-82
2022/04/02 02:56:27;;;;;;;;;;;2.40;99.90;;;;;;5095364;28;19912;-82
2022/04/02 02:58:52;;;;;;;;;;;2.40;99.90;;;;;;5094331;28;19916;-84
2022/04/02 03:01:18;;;;;;;;;;;2.40;99.90;;;;;;5095201;28;19948;-83
2022/04/02 03:03:43;;;;;;;;;;;2.40;28.80;;;;;;5093065;28;20037;-81
2022/04/02 03:06:09;;;;;;;;;;;2.40;1.00;;;;;;5094325;28;20360;-83
2022/04/02 03:08:34;;;;;;;;;;;2.40;1.00;;;;;;5093517;28;19912;-82
2022/04/02 03:11:00;;;;;;;;;;;2.50;99.90;;;;;;5092754;28;19916;-82
2022/04/02 03:13:26;;;;;;;;;;;2.50;99.90;;;;;;5094309;28;19940;-82
2022/04/02 03:15:51;;;;;;;;;;;2.50;99.90;;;;;;5094525;28;19966;-82
2022/04/02 03:18:17;;;;;;;;;;;2.50;99.90;;;;;;5095472;28;19940;-82
2022/04/02 03:20:43;;;;;;;;;;;2.60;99.90;;;;;;5092733;28;19920;-81
2022/04/02 03:23:09;;;;;;;;;;;2.60;1.00;;;;;;5094590;28;19972;-79
2022/04/02 03:25:34;;;;;;;;;;;2.60;1.00;;;;;;5094073;28;19919;-82
2022/04/02 03:28:00;;;;;;;;;;;2.60;1.00;;;;;;5125287;28;19920;-82
2022/04/02 03:30:26;;;;;;;;;;;2.60;99.90;;;;;;5094407;28;19916;-82
2022/04/02 03:32:54;;;;;;;;;;;2.60;99.90;;;;;;5094338;28;19916;-81
2022/04/02 03:35:20;;;;;;;;;;;2.70;99.90;;;;;;5093858;28;19991;-83
2022/04/02 03:37:47;;;;;;;;;;;2.70;99.90;;;;;;5093626;28;19944;-81
2022/04/02 03:40:17;;;;;;;;;;;2.70;99.90;;;;;;5095480;28;19920;-81
2022/04/02 03:42:46;;;;;;;;;;;2.60;99.90;;;;;;5091912;28;19920;-81
2022/04/02 03:45:13;;;;;;;;;;;2.60;25.40;;;;;;5095324;28;19920;-81
2022/04/02 03:47:38;;;;;;;;;;;2.60;1.00;;;;;;5093697;28;19935;-81
2022/04/02 03:50:04;;;;;;;;;;;2.60;1.00;;;;;;5098771;28;19916;-81
2022/04/02 03:52:30;;;;;;;;;;;2.60;1.00;;;;;;5091564;28;19920;-82
2022/04/02 03:54:55;;;;;;;;;;;2.60;1.00;;;;;;5098466;28;19998;-82
2022/04/02 03:57:21;;;;;;;;;;;2.60;1.00;;;;;;5098255;28;19918;-82
2022/04/02 03:59:47;;;;;;;;;;;2.60;1.00;;;;;;5097901;28;19912;-81
2022/04/02 04:02:12;;;;;;;;;;;2.60;1.00;;;;;;5096144;28;19931;-82
2022/04/02 04:04:38;;;;;;;;;;;2.60;99.90;;;;;;5096018;28;19916;-82
2022/04/02 04:07:04;;;;;;;;;;;2.60;13.60;;;;;;5102018;28;19917;-82
2022/04/02 04:09:30;;;;;;;;;;;2.60;1.00;;;;;;5096784;28;19916;-80
2022/04/02 04:11:56;;;;;;;;;;;2.50;99.90;;;;;;5097905;28;19924;-81
2022/04/02 04:14:22;;;;;;;;;;;2.50;99.90;;;;;;5094856;28;19916;-81
2022/04/02 04:16:48;;;;;;;;;;;2.50;99.90;;;;;;5097305;28;19918;-81
2022/04/02 04:19:13;;;;;;;;;;;2.50;99.90;;;;;;5099085;28;20372;-80
2022/04/02 04:21:39;;;;;;;;;;;2.50;44.20;;;;;;5095090;28;19998;-80
2022/04/02 04:24:05;;;;;;;;;;;2.50;1.00;;;;;;5095187;28;19912;-82
2022/04/02 04:26:31;;;;;;;;;;;2.50;1.00;;;;;;5095590;28;20380;-80
2022/04/02 04:28:56;;;;;;;;;;;2.50;1.00;;;;;;5094517;28;19916;-80
2022/04/02 04:31:22;;;;;;;;;;;2.50;1.00;;;;;;5095402;28;19924;-82
2022/04/02 04:33:48;;;;;;;;;;;2.40;1.00;;;;;;5093499;28;19955;-80
2022/04/02 04:36:21;;;;;;;;;;;2.50;99.90;;;;;;5095294;28;19912;-81
2022/04/02 04:38:48;;;;;;;;;;;2.50;99.90;;;;;;5092185;28;20277;-80
2022/04/02 04:41:13;;;;;;;;;;;2.40;99.90;;;;;;5097763;28;19978;-80
2022/04/02 04:43:41;;;;;;;;;;;2.40;1.00;;;;;;5092633;28;19912;-80
2022/04/02 04:46:07;;;;;;;;;;;2.40;40.50;;;;;;5092245;28;19958;-81
2022/04/02 04:48:33;;;;;;;;;;;2.30;1.00;;;;;;5093779;28;19912;-81
2022/04/02 04:50:58;;;;;;;;;;;2.30;1.00;;;;;;5092923;28;19916;-82
2022/04/02 04:53:24;;;;;;;;;;;2.40;1.00;;;;;;5093920;28;19920;-82
2022/04/02 04:55:49;;;;;;;;;;;2.40;99.90;;;;;;5092797;28;19916;-81
2022/04/02 04:58:15;;;;;;;;;;;2.30;99.90;;;;;;5093988;28;20003;-81
2022/04/02 05:00:41;;;;;;;;;;;2.30;99.90;;;;;;5122594;27;20577;-82
2022/04/02 05:03:08;;;;;;;;;;;2.30;99.90;;;;;;5091297;28;19912;-81
2022/04/02 05:05:34;;;;;;;;;;;2.30;1.00;;;;;;5091736;28;19912;-81
2022/04/02 05:08:00;;;;;;;;;;;2.30;99.90;;;;;;5094174;28;19923;-81
2022/04/02 05:10:26;;;;;;;;;;;2.30;99.90;;;;;;5092407;28;19912;-80
2022/04/02 05:12:51;;;;;;;;;;;2.30;99.90;;;;;;5093092;28;20342;-80
2022/04/02 05:15:17;;;;;;;;;;;2.20;86.80;;;;;;5097726;28;20400;-81
2022/04/02 05:17:42;;;;;;;;;;;2.20;99.90;;;;;;5092519;28;20336;-82
2022/04/02 05:20:11;;;;;;;;;;;2.20;99.90;;;;;;5097589;28;19934;-82
2022/04/02 05:22:36;;;;;;;;;;;2.30;99.90;;;;;;5095241;28;20021;-82
2022/04/02 05:25:02;;;;;;;;;;;2.30;99.90;;;;;;5102133;28;19942;-82
2022/04/02 05:27:28;;;;;;;;;;;2.30;1.00;;;;;;5094724;28;19919;-81
2022/04/02 05:29:54;;;;;;;;;;;2.40;1.00;;;;;;5097206;28;19916;-81
2022/04/02 05:32:19;;;;;;;;;;;2.40;1.00;;;;;;5095784;28;19938;-83
2022/04/02 05:34:45;;;;;;;;;;;2.40;1.00;;;;;;5092831;28;19912;-80
2022/04/02 05:37:10;;;;;;;;;;;2.40;1.00;;;;;;5094499;28;19919;-85
2022/04/02 05:39:36;;;;;;;;;;;2.50;1.00;;;;;;5093591;28;20003;-82
2022/04/02 05:42:01;;;;;;;;;;;2.60;1.00;;;;;;5094959;28;19913;-81
2022/04/02 05:44:27;;;;;;;;;;;2.60;1.00;;;;;;5124168;27;20316;-82
2022/04/02 05:46:52;;;;;;;;;;;2.70;1.00;;;;;;5093441;28;20382;-82
2022/04/02 05:49:18;;;;;;;;;;;2.70;99.90;;;;;;5093432;28;19912;-83
2022/04/02 05:51:43;;;;;;;;;;;2.80;99.90;;;;;;5093131;28;19916;-82
2022/04/02 05:54:09;;;;;;;;;;;2.80;99.90;;;;;;5094979;28;19919;-82
2022/04/02 05:56:35;;;;;;;;;;;2.80;99.90;;;;;;5093034;28;20380;-82
2022/04/02 05:59:02;;;;;;;;;;;2.80;99.90;;;;;;5127805;27;19995;-83
2022/04/02 06:01:27;;;;;;;;;;;2.80;99.90;;;;;;5093086;28;19912;-84
2022/04/02 06:03:53;;;;;;;;;;;2.80;99.90;;;;;;5097274;28;19961;-83
2022/04/02 06:06:19;;;;;;;;;;;2.80;99.90;;;;;;5091646;28;19912;-82
2022/04/02 06:08:44;;;;;;;;;;;2.90;99.90;;;;;;5092578;28;19981;-78
2022/04/02 06:11:10;;;;;;;;;;;2.90;99.90;;;;;;5094009;28;19938;-82
2022/04/02 06:13:35;;;;;;;;;;;2.90;99.90;;;;;;5090991;28;19912;-83
2022/04/02 06:16:01;;;;;;;;;;;2.90;99.90;;;;;;5093971;28;19912;-82
2022/04/02 06:18:27;;;;;;;;;;;2.90;99.90;;;;;;5095140;28;19927;-82
2022/04/02 06:20:52;;;;;;;;;;;2.90;95.50;;;;;;5096150;28;19916;-82
2022/04/02 06:23:18;;;;;;;;;;;2.90;48.40;;;;;;5092191;28;19940;-81
2022/04/02 06:25:43;;;;;;;;;;;3.00;18.30;;;;;;5090470;28;20257;-81
2022/04/02 06:28:09;;;;;;;;;;;3.00;33.60;;;;;;5096182;28;19919;-82
2022/04/02 06:30:34;;;;;;;;;;;3.00;30.00;;;;;;5090455;28;19924;-82
2022/04/02 06:33:00;;;;;;;;;;;3.10;1.00;;;;;;5092239;28;19922;-82
2022/04/02 06:35:26;;;;;;;;;;;3.10;1.00;;;;;;5091340;28;20433;-82
2022/04/02 06:37:53;;;;;;;;;;;3.20;1.00;;;;;;5092520;28;19916;-82
2022/04/02 06:40:18;;;;;;;;;;;3.20;1.00;;;;;;5091254;28;19966;-83
2022/04/02 06:42:44;;;;;;;;;;;3.20;1.00;;;;;;5096689;28;19912;-82
2022/04/02 06:45:10;;;;;;;;;;;3.20;1.00;;;;;;5094468;28;20049;-84
2022/04/02 06:47:35;;;;;;;;;;;3.30;1.00;;;;;;5094560;28;20380;-83
2022/04/02 06:50:04;;;;;;;;;;;3.20;1.00;;;;;;5096203;28;19912;-83
2022/04/02 06:52:30;;;;;;;;;;;3.20;1.00;;;;;;5090182;28;20391;-84
2022/04/02 06:54:56;;;;;;;;;;;3.20;1.00;;;;;;5095208;28;19916;-83
2022/04/02 06:57:21;;;;;;;;;;;3.20;1.00;;;;;;5096068;28;19958;-83
2022/04/02 06:59:47;;;;;;;;;;;3.30;1.00;;;;;;5097015;28;19908;-83
2022/04/02 07:02:13;;;;;;;;;;;3.30;1.00;;;;;;5105549;28;19920;-83
2022/04/02 07:04:39;;;;;;;;;;;3.40;1.00;;;;;;5113131;28;19950;-84
2022/04/02 07:07:04;;;;;;;;;;;3.40;1.00;;;;;;5101445;28;20280;-83
2022/04/02 07:09:30;;;;;;;;;;;3.50;1.00;;;;;;5091764;28;19919;-83
2022/04/02 07:11:55;;;;;;;;;;;3.60;1.00;;;;;;5104188;28;19937;-83
2022/04/02 07:14:21;;;;;;;;;;;3.60;1.00;;;;;;5106634;28;19929;-84
2022/04/02 07:16:47;;;;;;;;;;;3.60;1.00;;;;;;5106451;28;19908;-83
2022/04/02 07:19:13;;;;;;;;;;;3.70;1.00;;;;;;5115604;28;19979;-84
2022/04/02 07:21:39;;;;;;;;;;;3.80;1.00;;;;;;5105710;28;19970;-83
2022/04/02 07:24:06;;;;;;;;;;;3.80;1.00;;;;;;5106205;28;20015;-83
2022/04/02 07:26:32;;;;;;;;;;;3.80;1.00;;;;;;5103598;28;20299;-82
2022/04/02 07:28:58;;;;;;;;;;;3.90;1.00;;;;;;5101948;28;19924;-83
2022/04/02 07:31:23;;;;;;;;;;;4.00;1.00;;;;;;5095487;28;20019;-82
2022/04/02 07:33:49;;;;;;;;;;;4.10;1.00;;;;;;5095957;28;19951;-82
2022/04/02 07:36:17;;;;;;;;;;;4.20;1.00;;;;;;5095629;28;19920;-81
2022/04/02 07:38:43;;;;;;;;;;;4.20;1.00;;;;;;5095211;28;19912;-82
2022/04/02 07:41:25;;;;;;;;;;;4.30;1.00;;;;;;5095042;28;19912;-81
2022/04/02 07:43:54;;;;;;;;;;;4.30;1.00;;;;;;5093498;28;19912;-82
2022/04/02 07:46:26;;;;;;;;;;;4.30;1.00;;;;;;5089155;28;19912;-81
2022/04/02 07:48:52;;;;;;;;;;;4.40;1.00;;;;;;5094952;28;20514;-82
2022/04/02 07:51:20;;;;;;;;;;;4.50;1.00;;;;;;5092248;28;19923;-82
2022/04/02 07:53:48;;;;;;;;;;;4.60;1.00;;;;;;5093419;28;19923;-82
2022/04/02 07:56:27;;;;;;;;;;;4.70;1.00;;;;;;5092688;28;19920;-82
2022/04/02 07:58:55;;;;;;;;;;;4.70;99.90;;;;;;5092670;28;19939;-82
2022/04/02 08:01:21;;;;;;;;;;;4.80;99.90;;;;;;5095339;28;19913;-82
2022/04/02 08:03:47;;;;;;;;;;;5.00;99.90;;;;;;5091566;28;19912;-82
2022/04/02 08:06:15;;;;;;;;;;;5.20;99.90;;;;;;5090113;28;19983;-83
2022/04/02 08:08:42;;;;;;;;;;;5.30;99.90;;;;;;5094635;28;19912;-83
2022/04/02 08:11:09;;;;;;;;;;;5.30;99.90;;;;;;5098403;28;19938;-83
2022/04/02 08:13:36;;;;;;;;;;;5.20;99.90;;;;;;5096158;28;19916;-82
2022/04/02 08:16:01;;;;;;;;;;;5.50;99.90;;;;;;5096472;28;20398;-82
2022/04/02 08:18:27;;;;;;;;;;;5.60;99.90;;;;;;5094608;28;20025;-82
2022/04/02 08:20:54;;;;;;;;;;;5.80;99.90;;;;;;5097587;28;19944;-83
2022/04/02 08:23:19;;;;;;;;;;;6.10;99.90;;;;;;5092459;28;19912;-83
2022/04/02 08:26:04;;;;;;;;;;;6.30;99.90;;;;;;5096103;28;19916;-82
2022/04/02 08:28:41;;;;;;;;;;;6.40;99.90;;;;;;5106165;28;19951;-82
2022/04/02 08:31:14;;;;;;;;;;;6.40;99.90;;;;;;5126824;27;19997;-79
2022/04/02 08:33:39;;;;;;;;;;;6.30;99.90;;;;;;5096401;28;19919;-81
2022/04/02 08:36:16;;;;;;;;;;;6.20;99.90;;;;;;5100517;28;19916;-81
2022/04/02 08:39:00;;;;;;;;;;;6.20;99.90;;;;;;5093547;28;19916;-81
2022/04/02 08:41:41;;;;;;;;;;;6.30;99.90;;;;;;5120329;27;20451;-83
2022/04/02 08:44:09;;;;;;;;;;;6.40;99.90;;;;;;5094964;28;19920;-82
2022/04/02 08:46:37;;;;;;;;;;;6.80;99.90;;;;;;5096569;28;19918;-81
2022/04/02 08:49:09;;;;;;;;;;;7.20;99.90;;;;;;5095984;28;19969;-82
2022/04/02 08:51:34;;;;;;;;;;;7.60;99.90;;;;;;5092252;28;19920;-81
2022/04/02 08:53:59;;;;;;;;;;;8.00;99.90;;;;;;5090038;28;19982;-82
2022/04/02 08:56:25;;;;;;;;;;;8.50;99.90;;;;;;5094661;28;19916;-82
2022/04/02 08:59:04;;;;;;;;;;;8.60;99.90;;;;;;5091413;28;19971;-82
2022/04/02 09:01:41;;;;;;;;;;;9.20;99.90;;;;;;5095160;28;19912;-81
2022/04/02 09:04:07;;;;;;;;;;;9.70;99.90;;;;;;5089111;28;19912;-79
2022/04/02 09:06:51;;;;;;;;;;;10.00;99.90;;;;;;5092581;28;19912;-81
2022/04/02 09:09:40;;;;;;;;;;;9.70;99.90;;;;;;5093984;28;19919;-82
2022/04/02 09:12:17;;;;;;;;;;;9.20;99.90;;;;;;5080766;28;19981;-80
2022/04/02 09:15:09;;;;;;;;;;;9.00;99.90;;;;;;5124513;27;20053;-82
2022/04/02 09:17:38;;;;;;;;;;;10.10;99.90;;;;;;5080311;28;19912;-82
2022/04/02 09:20:27;;;;;;;;;;;10.50;99.90;;;;;;5092924;28;19973;-81
2022/04/02 09:22:55;;;;;;;;;;;10.70;99.90;;;;;;5096942;28;19950;-82
2022/04/02 09:25:39;;;;;;;;;;;10.10;99.90;;;;;;5100600;28;19912;-82
2022/04/02 09:28:08;;;;;;;;;;;9.90;99.90;;;;;;5106380;28;20325;-81
2022/04/02 09:30:40;;;;;;;;;;;9.50;99.90;;;;;;5096914;28;19916;-81
2022/04/02 09:33:18;;;;;;;;;;;9.10;99.90;;;;;;5102034;28;19916;-82
2022/04/02 09:36:01;;;;;;;;;;;8.90;99.90;;;;;;5094637;28;20049;-81
2022/04/02 09:38:45;;;;;;;;;;;8.70;99.90;;;;;;5090696;28;19912;-83
2022/04/02 09:41:23;;;;;;;;;;;8.80;99.90;;;;;;5094431;28;19972;-81
2022/04/02 09:43:58;;;;;;;;;;;9.10;99.90;;;;;;5123302;27;19967;-81
2022/04/02 09:46:29;;;;;;;;;;;9.50;99.90;;;;;;5095795;28;19912;-82
2022/04/02 09:48:59;;;;;;;;;;;10.30;99.90;;;;;;5093284;28;19994;-83
2022/04/02 09:51:30;;;;;;;;;;;11.20;99.90;;;;;;5090055;28;19916;-83
2022/04/02 09:54:01;;;;;;;;;;;10.90;99.90;;;;;;5094511;28;19912;-84
2022/04/02 09:56:27;;;;;;;;;;;10.30;99.90;;;;;;5096014;28;20299;-82
2022/04/02 09:59:01;;;;;;;;;;;9.70;99.90;;;;;;5096369;28;19912;-81
2022/04/02 10:01:47;;;;;;;;;;;9.00;99.90;;;;;;5088648;28;19962;-81
2022/04/02 10:04:31;;;;;;;;;;;8.70;99.90;;;;;;5094905;28;19927;-84
2022/04/02 10:06:57;;;;;;;;;;;8.00;99.90;;;;;;5093032;28;19912;-82
2022/04/02 10:09:27;;;;;;;;;;;7.90;99.90;;;;;;5128204;27;19920;-84
2022/04/02 10:11:57;;;;;;;;;;;7.80;99.90;;;;;;5094730;28;19920;-84
2022/04/02 10:14:24;;;;;;;;;;;7.90;99.90;;;;;;5095769;28;20417;-85
2022/04/02 10:16:55;;;;;;;;;;;7.80;99.90;;;;;;5091395;28;19999;-83
2022/04/02 10:19:27;;;;;;;;;;;7.90;99.90;;;;;;5095357;28;19912;-83
2022/04/02 10:21:55;;;;;;;;;;;7.80;99.90;;;;;;5094649;28;19912;-83
2022/04/02 10:24:21;;;;;;;;;;;9.00;99.90;;;;;;5096477;28;19916;-79
2022/04/02 10:26:54;;;;;;;;;;;9.50;99.90;;;;;;5094198;28;19958;-82
2022/04/02 10:29:40;;;;;;;;;;;9.60;99.90;;;;;;5096568;28;20460;-83
2022/04/02 10:32:24;;;;;;;;;;;9.30;99.90;;;;;;5094257;28;19916;-82
2022/04/02 10:34:55;;;;;;;;;;;8.80;99.90;;;;;;5090983;28;19930;-81
2022/04/02 10:37:23;;;;;;;;;;;8.50;99.90;;;;;;5091513;28;20490;-81
2022/04/02 10:39:53;;;;;;;;;;;8.40;99.90;;;;;;5092827;28;19919;-82
2022/04/02 10:42:19;;;;;;;;;;;8.10;99.90;;;;;;5091976;28;19912;-82
2022/04/02 10:44:57;;;;;;;;;;;8.00;99.90;;;;;;5091122;28;20054;-83
2022/04/02 10:47:26;;;;;;;;;;;8.10;99.90;;;;;;5094921;28;20273;-82
2022/04/02 10:49:56;;;;;;;;;;;8.10;99.90;;;;;;5091603;28;19916;-82
2022/04/02 10:52:25;;;;;;;;;;;8.40;99.90;;;;;;5091562;28;19927;-82
2022/04/02 10:54:51;;;;;;;;;;;8.50;99.90;;;;;;5088423;28;20753;-84
2022/04/02 10:57:17;;;;;;;;;;;8.50;99.90;;;;;;5094890;28;19908;-82
2022/04/02 10:59:44;;;;;;;;;;;8.50;99.90;;;;;;5094008;28;19955;-82
2022/04/02 11:02:19;;;;;;;;;;;8.20;99.90;;;;;;5090842;28;20272;-82
2022/04/02 11:05:03;;;;;;;;;;;7.90;99.90;;;;;;5089443;28;19973;-83
2022/04/02 11:07:40;;;;;;;;;;;7.60;99.90;;;;;;5087556;28;20007;-82
2022/04/02 11:10:06;;;;;;;;;;;7.20;99.90;;;;;;5091142;28;20472;-81
2022/04/02 11:12:41;;;;;;;;;;;7.00;99.90;;;;;;5087378;28;19966;-80
2022/04/02 11:15:23;;;;;;;;;;;7.10;99.90;;;;;;5092897;28;20346;-84
2022/04/02 11:17:49;;;;;;;;;;;7.40;99.90;;;;;;5092896;28;19916;-83
2022/04/02 11:20:19;;;;;;;;;;;8.00;99.90;;;;;;5095413;28;19912;-84
2022/04/02 11:22:54;;;;;;;;;;;9.10;99.90;;;;;;5093504;28;19912;-82
2022/04/02 11:25:22;;;;;;;;;;;10.50;99.90;;;;;;5093461;28;19920;-84
2022/04/02 11:27:54;;;;;;;;;;;11.10;99.90;;;;;;5095076;28;19912;-82
2022/04/02 11:30:23;;;;;;;;;;;11.10;99.90;;;;;;5095082;28;19950;-83
2022/04/02 11:32:50;;;;;;;;;;;10.80;99.90;;;;;;5088353;28;19916;-83
2022/04/02 11:35:25;;;;;;;;;;;10.00;99.90;;;;;;5099951;28;19999;-83
2022/04/02 11:37:53;;;;;;;;;;;9.10;99.90;;;;;;5123612;27;20334;-83
2022/04/02 11:40:19;;;;;;;;;;;8.70;99.90;;;;;;5093039;28;19912;-82
2022/04/02 11:42:47;;;;;;;;;;;9.00;99.90;;;;;;5091589;28;20604;-83
2022/04/02 11:45:17;;;;;;;;;;;9.60;99.90;;;;;;5127107;27;20456;-82
2022/04/02 11:47:46;;;;;;;;;;;10.20;99.90;;;;;;5090033;28;19912;-83
2022/04/02 11:50:12;;;;;;;;;;;10.60;99.90;;;;;;5093842;28;19923;-82
2022/04/02 11:52:57;;;;;;;;;;;10.00;99.90;;;;;;5092514;28;20288;-82
2022/04/02 11:55:27;;;;;;;;;;;9.50;99.90;;;;;;5091657;28;19912;-83
2022/04/02 11:57:58;;;;;;;;;;;8.70;99.90;;;;;;5092326;28;19916;-83
2022/04/02 12:00:30;;;;;;;;;;;8.50;99.90;;;;;;5091227;28;19919;-83
2022/04/02 12:02:57;;;;;;;;;;;8.50;99.90;;;;;;5088856;28;20419;-82
2022/04/02 12:05:40;;;;;;;;;;;8.80;99.90;;;;;;5087320;28;19920;-82
2022/04/02 12:08:08;;;;;;;;;;;9.50;99.90;;;;;;5088539;28;20385;-84
2022/04/02 12:10:46;;;;;;;;;;;10.80;99.90;;;;;;5089987;28;20002;-82
2022/04/02 12:13:12;;;;;;;;;;;11.90;99.90;;;;;;5086549;28;20995;-84
2022/04/02 12:15:40;;;;;;;;;;;12.90;99.90;;;;;;5095714;28;20322;-83
2022/04/02 12:18:07;;;;;;;;;;;13.50;99.90;;;;;;5105039;28;19912;-83
2022/04/02 12:20:35;;;;;;;;;;;13.90;99.90;;;;;;5115066;28;19961;-84
2022/04/02 12:23:08;;;;;;;;;;;14.20;99.90;;;;;;5100162;28;20007;-84
2022/04/02 12:25:34;;;;;;;;;;;13.90;99.90;;;;;;5105791;28;19936;-83
2022/04/02 12:28:00;;;;;;;;;;;13.60;99.90;;;;;;5108352;28;20421;-83
2022/04/02 12:30:35;;;;;;;;;;;12.80;99.90;;;;;;5108018;28;19999;-83
2022/04/02 12:33:07;;;;;;;;;;;12.30;99.90;;;;;;5106532;28;19916;-83
2022/04/02 12:35:33;;;;;;;;;;;11.90;99.90;;;;;;5108732;28;19971;-83
2022/04/02 12:38:01;;;;;;;;;;;12.60;99.90;;;;;;5088614;28;19919;-83
2022/04/02 12:40:34;;;;;;;;;;;13.50;99.90;;;;;;5111351;28;19908;-83
2022/04/02 12:43:01;;;;;;;;;;;14.40;99.90;;;;;;5097361;28;19912;-81
2022/04/02 12:45:27;;;;;;;;;;;14.70;99.90;;;;;;5100639;28;19912;-85
2022/04/02 12:47:58;;;;;;;;;;;14.80;99.90;;;;;;5109615;28;19912;-85
2022/04/02 12:50:24;;;;;;;;;;;14.80;99.90;;;;;;5115689;28;19946;-84
2022/04/02 12:52:50;;;;;;;;;;;14.70;99.90;;;;;;5103674;28;19945;-83
2022/04/02 12:55:17;;;;;;;;;;;14.20;99.90;;;;;;5095536;28;19912;-82
2022/04/02 12:57:57;;;;;;;;;;;13.70;99.90;;;;;;5108605;28;19915;-83
2022/04/02 13:00:29;;;;;;;;;;;13.60;99.90;;;;;;5103514;28;20002;-83
2022/04/02 13:02:55;;;;;;;;;;;14.30;99.90;;;;;;5111543;28;19912;-84
2022/04/02 13:05:23;;;;;;;;;;;14.70;99.90;;;;;;5111253;28;20283;-82
2022/04/02 13:08:00;;;;;;;;;;;15.10;99.90;;;;;;5109809;28;20367;-84
2022/04/02 13:10:27;;;;;;;;;;;15.10;99.90;;;;;;5104158;28;19919;-82
2022/04/02 13:12:56;;;;;;;;;;;14.20;99.90;;;;;;5114301;28;19916;-84
2022/04/02 13:15:22;;;;;;;;;;;13.30;99.90;;;;;;5112220;28;19957;-84
2022/04/02 13:20:37;;;;;;;;;;;11.10;99.90;;;;;;5105787;28;19919;-82
2022/04/02 13:23:04;;;;;;;;;;;10.40;99.90;;;;;;5096301;28;20015;-82
2022/04/02 13:25:32;;;;;;;;;;;10.10;99.90;;;;;;5102636;28;20307;-83
2022/04/02 13:28:27;;;;;;;;;;;10.00;99.90;;;;;;5111022;28;19930;-82
2022/04/02 13:30:53;;;;;;;;;;;10.10;99.90;;;;;;5104138;28;20340;-82
2022/04/02 13:33:37;;;;;;;;;;;10.30;99.90;;;;;;5095931;28;20280;-83
2022/04/02 13:36:11;;;;;;;;;;;10.10;99.90;;;;;;5096743;28;19912;-83
2022/04/02 13:38:55;;;;;;;;;;;10.10;99.90;;;;;;5098463;28;19908;-84
2022/04/02 13:41:29;;;;;;;;;;;9.60;99.90;;;;;;5105187;28;19912;-82
2022/04/02 13:43:57;;;;;;;;;;;9.20;99.90;;;;;;5094398;28;19912;-82
2022/04/02 13:46:29;;;;;;;;;;;9.20;99.90;;;;;;5103977;28;19912;-83
2022/04/02 13:49:03;;;;;;;;;;;9.30;99.90;;;;;;5106795;28;20379;-83
2022/04/02 13:51:38;;;;;;;;;;;9.60;99.90;;;;;;5105197;28;20334;-83
2022/04/02 13:54:05;;;;;;;;;;;9.90;99.90;;;;;;5094763;28;19908;-84
2022/04/02 13:56:35;;;;;;;;;;;10.00;99.90;;;;;;5110268;28;19919;-82
2022/04/02 13:59:02;;;;;;;;;;;10.60;99.90;;;;;;5093950;28;19908;-81
2022/04/02 14:01:31;;;;;;;;;;;11.00;99.90;;;;;;5092732;28;19916;-83
2022/04/02 14:04:18;;;;;;;;;;;11.70;99.90;;;;;;5095508;28;19930;-81
2022/04/02 14:06:51;;;;;;;;;;;11.90;99.90;;;;;;5092402;28;19912;-82
2022/04/02 14:09:21;;;;;;;;;;;11.40;99.90;;;;;;5092006;28;19912;-80
2022/04/02 14:11:48;;;;;;;;;;;11.10;99.90;;;;;;5097499;28;19931;-82
2022/04/02 14:14:21;;;;;;;;;;;11.30;99.90;;;;;;5090824;28;19912;-82
2022/04/02 14:17:01;;;;;;;;;;;11.10;99.90;;;;;;5095268;28;20003;-83
2022/04/02 14:19:32;;;;;;;;;;;10.90;99.90;;;;;;5090412;28;19912;-82
2022/04/02 14:22:00;;;;;;;;;;;11.00;99.90;;;;;;5093969;28;19944;-82
2022/04/02 14:24:31;;;;;;;;;;;10.90;99.90;;;;;;5093032;28;19934;-84
2022/04/02 14:27:09;;;;;;;;;;;11.10;99.90;;;;;;5106454;28;19976;-83
2022/04/02 14:29:53;;;;;;;;;;;11.30;99.90;;;;;;5109369;28;20486;-82
2022/04/02 14:32:19;;;;;;;;;;;11.30;99.90;;;;;;5108295;28;19912;-82
2022/04/02 14:35:03;;;;;;;;;;;11.60;99.90;;;;;;5111553;28;19971;-84
2022/04/02 14:37:31;;;;;;;;;;;11.80;99.90;;;;;;5081818;28;19912;-83
2022/04/02 14:40:13;;;;;;;;;;;11.60;99.90;;;;;;5105617;28;19973;-83
2022/04/02 14:42:41;;;;;;;;;;;11.10;99.90;;;;;;5095150;28;19927;-81
2022/04/02 14:45:25;;;;;;;;;;;10.60;99.90;;;;;;5107018;28;19915;-83
2022/04/02 14:48:11;;;;;;;;;;;10.40;99.90;;;;;;5106782;28;20292;-82